createdAt,value
2018-06-09T00:01:25.487Z,99526.53
2018-06-09T00:03:55.797Z,99529.77
2018-06-09T00:06:26.003Z,99536.72
2018-06-09T00:08:55.851Z,99544.05
2018-06-09T00:11:26.032Z,99546.86
2018-06-09T00:13:56.343Z,99546.57
2018-06-09T00:16:26.445Z,99557.17
2018-06-09T00:18:56.573Z,99557.45
2018-06-09T00:21:26.635Z,99559.97
2018-06-09T00:23:56.604Z,99570.70
2018-06-09T00:26:27.626Z,99574.70
2018-06-09T00:28:57.708Z,99574.23
2018-06-09T00:31:27.866Z,99580.92
2018-06-09T00:33:57.850Z,99574.61
2018-06-09T00:36:27.901Z,99567.91
2018-06-09T00:38:58.281Z,99570.23
2018-06-09T00:41:28.431Z,99564.99
2018-06-09T00:43:58.521Z,99575.36
2018-06-09T00:46:28.743Z,99569.72
2018-06-09T00:48:58.712Z,99567.67
2018-06-09T00:51:28.678Z,99571.61
2018-06-09T00:53:58.843Z,99574.07
2018-06-09T00:56:39.497Z,99574.67
2018-06-09T00:59:09.549Z,99580.76
2018-06-09T01:01:39.739Z,99571.03
2018-06-09T01:04:09.782Z,99571.03
2018-06-09T01:06:39.768Z,99574.40
2018-06-09T01:09:10.141Z,99572.30
2018-06-09T01:11:40.229Z,99573.99
2018-06-09T01:14:10.421Z,99562.34
2018-06-09T01:16:40.584Z,99560.97
2018-06-09T01:19:10.634Z,99561.34
2018-06-09T01:21:40.882Z,99563.77
2018-06-09T01:24:11.084Z,99564.66
2018-06-09T01:26:41.042Z,99551.47
2018-06-09T01:29:11.026Z,99555.42
2018-06-09T01:31:41.320Z,99553.52
2018-06-09T01:34:11.710Z,99548.87
2018-06-09T01:36:41.874Z,99549.11
2018-06-09T01:39:12.177Z,99548.84
2018-06-09T01:41:42.443Z,99549.83
2018-06-09T01:44:19.025Z,99546.79
2018-06-09T01:46:56.691Z,99538.70
2018-06-09T01:49:28.736Z,99536.61
2018-06-09T01:51:58.817Z,99534.73
2018-06-09T01:54:28.785Z,99536.94
2018-06-09T01:56:58.859Z,99536.14
2018-06-09T01:59:29.239Z,99527.85
2018-06-09T02:01:59.298Z,99531.74
2018-06-09T02:04:29.537Z,99519.64
2018-06-09T02:06:59.751Z,99516.23
2018-06-09T02:09:29.849Z,99511.52
2018-06-09T02:12:01.001Z,99506.58
2018-06-09T02:14:31.143Z,99498.33
2018-06-09T02:17:01.097Z,99488.28
2018-06-09T02:19:31.333Z,99492.31
2018-06-09T02:22:01.527Z,99488.19
2018-06-09T02:24:31.607Z,99491.13
2018-06-09T02:27:01.979Z,99490.14
2018-06-09T02:29:32.120Z,99487.59
2018-06-09T02:32:02.405Z,99490.39
2018-06-09T02:34:32.590Z,99495.42
2018-06-09T02:37:02.653Z,99488.73
2018-06-09T02:39:32.712Z,99496.96
2018-06-09T02:42:02.839Z,99495.91
2018-06-09T02:44:32.974Z,99502.11
2018-06-09T02:47:03.005Z,99503.02
2018-06-09T02:49:33.465Z,99500.09
2018-06-09T02:52:03.326Z,99494.81
2018-06-09T02:54:33.458Z,99493.31
2018-06-09T02:57:03.689Z,99487.86
2018-06-09T02:59:34.051Z,99486.77
2018-06-09T03:02:04.039Z,99486.77
2018-06-09T03:04:34.451Z,99483.86
2018-06-09T03:07:04.712Z,99472.41
2018-06-09T03:09:34.628Z,99467.17
2018-06-09T03:12:05.853Z,99466.30
2018-06-09T03:14:35.866Z,99473.21
2018-06-09T03:17:06.006Z,99472.66
2018-06-09T03:19:36.110Z,99469.34
2018-06-09T03:22:06.156Z,99468.77
2018-06-09T03:24:36.695Z,99469.89
2018-06-09T03:27:07.077Z,99469.02
2018-06-09T03:29:36.959Z,99466.47
2018-06-09T03:32:07.100Z,99458.91
2018-06-09T03:34:37.063Z,99454.28
2018-06-09T03:37:07.230Z,99448.38
2018-06-09T03:39:37.172Z,99440.07
2018-06-09T03:42:07.323Z,99434.09
2018-06-09T03:44:37.573Z,99433.73
2018-06-09T03:47:07.603Z,99435.29
2018-06-09T03:49:37.707Z,99440.30
2018-06-09T03:52:07.778Z,99431.98
2018-06-09T03:54:37.777Z,99429.94
2018-06-09T03:57:07.895Z,99434.67
2018-06-09T03:59:37.846Z,99441.82
2018-06-09T04:02:08.156Z,99452.50
2018-06-09T04:04:38.271Z,99445.03
2018-06-09T04:07:08.615Z,99452.80
2018-06-09T04:09:38.802Z,99451.52
2018-06-09T04:12:08.988Z,99455.97
2018-06-09T04:14:40.204Z,99467.53
2018-06-09T04:17:10.459Z,99467.66
2018-06-09T04:19:40.248Z,99468.09
2018-06-09T04:22:11.375Z,99462.80
2018-06-09T04:24:41.590Z,99467.55
2018-06-09T04:27:11.627Z,99478.62
2018-06-09T04:29:42.010Z,99474.57
2018-06-09T04:32:12.214Z,99467.30
2018-06-09T04:34:42.491Z,99469.77
2018-06-09T04:37:12.722Z,99483.17
2018-06-09T04:39:43.032Z,99476.95
2018-06-09T04:42:13.051Z,99483.37
2018-06-09T04:44:43.182Z,99492.89
2018-06-09T04:47:13.057Z,99492.52
2018-06-09T04:49:43.349Z,99487.39
2018-06-09T04:52:13.617Z,99492.39
2018-06-09T04:54:43.790Z,99485.33
2018-06-09T04:57:13.881Z,99485.09
2018-06-09T04:59:44.090Z,99495.23
2018-06-09T05:02:14.152Z,99490.41
2018-06-09T05:04:44.431Z,99502.95
2018-06-09T05:07:14.543Z,99505.75
2018-06-09T05:09:45.614Z,99504.98
2018-06-09T05:12:15.783Z,99507.70
2018-06-09T05:14:46.095Z,99494.83
2018-06-09T05:17:16.037Z,99500.13
2018-06-09T05:19:46.168Z,99499.23
2018-06-09T05:22:16.069Z,99504.10
2018-06-09T05:24:46.237Z,99502.19
2018-06-09T05:27:16.238Z,99506.58
2018-06-09T05:29:47.381Z,99511.02
2018-06-09T05:32:17.441Z,99514.48
2018-06-09T05:34:47.494Z,99519.57
2018-06-09T05:37:18.178Z,99522.50
2018-06-09T05:39:48.445Z,99525.80
2018-06-09T05:42:18.704Z,99529.53
2018-06-09T05:44:48.685Z,99532.39
2018-06-09T05:47:18.827Z,99531.23
2018-06-09T05:49:48.990Z,99536.50
2018-06-09T05:52:19.160Z,99543.59
2018-06-09T05:54:49.448Z,99536.06
2018-06-09T05:57:19.328Z,99538.48
2018-06-09T05:59:49.423Z,99536.37
2018-06-09T06:02:19.444Z,99534.22
2018-06-09T06:04:49.792Z,99529.55
2018-06-09T06:07:19.904Z,99527.55
2018-06-09T06:09:49.977Z,99528.30
2018-06-09T06:12:20.054Z,99523.25
2018-06-09T06:14:50.134Z,99517.36
2018-06-09T06:17:20.330Z,99519.91
2018-06-09T06:19:50.339Z,99518.07
2018-06-09T06:22:20.441Z,99526.01
2018-06-09T06:24:50.401Z,99534.81
2018-06-09T06:27:20.241Z,99529.91
2018-06-09T06:29:50.311Z,99525.37
2018-06-09T06:32:20.545Z,99528.93
2018-06-09T06:34:50.681Z,99532.49
2018-06-09T06:37:20.756Z,99533.31
2018-06-09T06:39:51.044Z,99530.28
2018-06-09T06:42:21.137Z,99531.10
2018-06-09T06:44:51.261Z,99536.48
2018-06-09T06:47:21.476Z,99531.41
2018-06-09T06:49:51.750Z,99535.63
2018-06-09T06:52:21.661Z,99530.48
2018-06-09T06:54:51.969Z,99527.04
2018-06-09T06:57:22.082Z,99527.47
2018-06-09T06:59:52.275Z,99523.55
2018-06-09T07:02:22.182Z,99516.58
2018-06-09T07:04:52.503Z,99515.88
2018-06-09T07:07:22.597Z,99513.77
2018-06-09T07:09:52.877Z,99506.05
2018-06-09T07:12:23.077Z,99504.28
2018-06-09T07:14:53.030Z,99500.31
2018-06-09T07:17:25.290Z,99496.89
2018-06-09T07:19:55.447Z,99485.47
2018-06-09T07:22:25.706Z,99486.52
2018-06-09T07:24:55.712Z,99488.75
2018-06-09T07:27:25.758Z,99488.16
2018-06-09T07:29:55.763Z,99490.87
2018-06-09T07:32:26.069Z,99497.52
2018-06-09T07:34:56.245Z,99502.66
2018-06-09T07:37:26.245Z,99497.31
2018-06-09T07:39:56.780Z,99499.22
2018-06-09T07:42:29.247Z,99501.73
2018-06-09T07:44:59.550Z,99495.66
2018-06-09T07:47:29.698Z,99497.55
2018-06-09T07:50:00.023Z,99499.24
2018-06-09T07:52:30.642Z,99503.32
2018-06-09T07:55:01.079Z,99500.36
2018-06-09T07:57:31.223Z,99501.07
2018-06-09T08:00:01.363Z,99507.12
2018-06-09T08:02:31.343Z,99500.59
2018-06-09T08:05:02.393Z,99500.98
2018-06-09T08:07:32.284Z,99496.86
2018-06-09T08:10:02.360Z,99502.57
2018-06-09T08:12:33.385Z,99497.78
2018-06-09T08:15:03.365Z,99495.42
2018-06-09T08:17:33.471Z,99496.97
2018-06-09T08:20:03.887Z,99488.77
2018-06-09T08:22:34.077Z,99488.54
2018-06-09T08:25:04.161Z,99479.61
2018-06-09T08:27:34.388Z,99477.56
2018-06-09T08:30:04.597Z,99480.02
2018-06-09T08:32:34.930Z,99478.20
2018-06-09T08:35:05.014Z,99476.00
2018-06-09T08:37:35.167Z,99465.34
2018-06-09T08:40:06.365Z,99461.66
2018-06-09T08:42:37.421Z,99452.48
2018-06-09T08:45:07.787Z,99453.38
2018-06-09T08:47:38.067Z,99465.00
2018-06-09T08:50:08.097Z,99456.45
2018-06-09T08:52:38.225Z,99452.80
2018-06-09T08:55:08.484Z,99440.52
2018-06-09T08:57:38.855Z,99452.15
2018-06-09T09:00:08.895Z,99447.85
2018-06-09T09:02:38.833Z,99447.24
2018-06-09T09:05:09.095Z,99455.02
2018-06-09T09:07:39.222Z,99449.94
2018-06-09T09:10:09.072Z,99459.19
2018-06-09T09:12:39.127Z,99467.39
2018-06-09T09:15:09.262Z,99464.45
2018-06-09T09:17:39.386Z,99461.84
2018-06-09T09:20:09.598Z,99461.73
2018-06-09T09:22:39.760Z,99467.09
2018-06-09T09:25:09.979Z,99476.10
2018-06-09T09:27:39.884Z,99475.75
2018-06-09T09:30:10.044Z,99473.33
2018-06-09T09:32:41.170Z,99466.81
2018-06-09T09:35:11.256Z,99472.37
2018-06-09T09:37:41.458Z,99466.13
2018-06-09T09:40:11.830Z,99465.64
2018-06-09T09:42:41.941Z,99461.85
2018-06-09T09:45:12.097Z,99456.97
2018-06-09T09:47:41.980Z,99456.06
2018-06-09T09:50:12.452Z,99464.94
2018-06-09T09:52:42.552Z,99464.66
2018-06-09T09:55:12.574Z,99457.39
2018-06-09T09:57:53.531Z,99457.44
2018-06-09T10:00:23.951Z,99454.09
2018-06-09T10:02:54.236Z,99450.82
2018-06-09T10:05:24.618Z,99454.21
2018-06-09T10:07:54.649Z,99454.64
2018-06-09T10:10:24.957Z,99459.67
2018-06-09T10:12:55.251Z,99458.55
2018-06-09T10:15:25.198Z,99456.34
2018-06-09T10:17:55.263Z,99454.22
2018-06-09T10:20:25.258Z,99452.70
2018-06-09T10:22:55.301Z,99453.38
2018-06-09T10:25:25.398Z,99454.74
2018-06-09T10:27:55.454Z,99457.77
2018-06-09T10:30:25.807Z,99449.17
2018-06-09T10:32:55.984Z,99450.33
2018-06-09T10:35:25.928Z,99442.58
2018-06-09T10:37:55.801Z,99439.61
2018-06-09T10:40:26.369Z,99441.81
2018-06-09T10:42:56.521Z,99436.02
2018-06-09T10:45:26.628Z,99439.30
2018-06-09T10:47:56.478Z,99428.50
2018-06-09T10:50:26.704Z,99428.05
2018-06-09T10:52:56.653Z,99426.04
2018-06-09T10:55:26.902Z,99422.77
2018-06-09T10:57:56.968Z,99430.98
2018-06-09T11:00:27.036Z,99419.75
2018-06-09T11:02:57.078Z,99422.77
2018-06-09T11:05:27.285Z,99424.00
2018-06-09T11:07:58.275Z,99439.69
2018-06-09T11:10:28.310Z,99427.28
2018-06-09T11:12:58.311Z,99426.10
2018-06-09T11:15:28.671Z,99427.48
2018-06-09T11:17:58.849Z,99428.05
2018-06-09T11:20:29.143Z,99426.03
2018-06-09T11:22:59.241Z,99429.31
2018-06-09T11:25:29.564Z,99424.98
2018-06-09T11:27:59.744Z,99429.85
2018-06-09T11:30:29.842Z,99424.84
2018-06-09T11:32:59.964Z,99413.90
2018-06-09T11:35:30.101Z,99409.91
2018-06-09T11:38:01.089Z,99403.52
2018-06-09T11:40:31.260Z,99410.47
2018-06-09T11:43:01.468Z,99404.63
2018-06-09T11:45:31.991Z,99403.30
2018-06-09T11:48:02.363Z,99387.72
2018-06-09T11:50:32.632Z,99392.38
2018-06-09T11:53:02.867Z,99384.39
2018-06-09T11:55:33.165Z,99384.12
2018-06-09T11:58:03.223Z,99382.45
2018-06-09T12:00:33.578Z,99380.89
2018-06-09T12:03:03.727Z,99378.01
2018-06-09T12:05:33.729Z,99380.50
2018-06-09T12:08:04.230Z,99391.81
2018-06-09T12:10:35.252Z,99391.73
2018-06-09T12:13:05.833Z,99390.11
2018-06-09T12:15:36.242Z,99385.86
2018-06-09T12:18:06.413Z,99376.30
2018-06-09T12:20:36.481Z,99374.64
2018-06-09T12:23:06.801Z,99369.31
2018-06-09T12:25:37.053Z,99366.44
2018-06-09T12:28:07.341Z,99359.72
2018-06-09T12:30:37.577Z,99351.33
2018-06-09T12:33:07.836Z,99342.98
2018-06-09T12:35:38.048Z,99345.70
2018-06-09T12:38:08.277Z,99342.03
2018-06-09T12:40:38.681Z,99341.90
2018-06-09T12:43:08.812Z,99345.42
2018-06-09T12:45:39.073Z,99344.30
2018-06-09T12:48:09.511Z,99340.77
2018-06-09T12:50:40.124Z,99337.95
2018-06-09T12:53:10.084Z,99333.02
2018-06-09T12:55:41.105Z,99330.92
2018-06-09T12:58:11.176Z,99325.55
2018-06-09T13:00:41.328Z,99326.23
2018-06-09T13:03:11.295Z,99321.75
2018-06-09T13:05:41.609Z,99324.23
2018-06-09T13:08:11.860Z,99321.41
2018-06-09T13:10:42.060Z,99322.77
2018-06-09T13:13:12.262Z,99325.48
2018-06-09T13:15:43.415Z,99326.48
2018-06-09T13:18:13.633Z,99322.67
2018-06-09T13:20:43.608Z,99322.17
2018-06-09T13:23:13.898Z,99321.88
2018-06-09T13:25:44.196Z,99320.69
2018-06-09T13:28:14.407Z,99320.55
2018-06-09T13:30:44.724Z,99316.22
2018-06-09T13:33:15.196Z,99303.69
2018-06-09T13:35:45.453Z,99304.38
2018-06-09T13:38:17.634Z,99304.23
2018-06-09T13:40:48.020Z,99304.20
2018-06-09T13:43:18.056Z,99310.42
2018-06-09T13:45:48.133Z,99318.06
2018-06-09T13:48:18.290Z,99322.45
2018-06-09T13:50:48.514Z,99317.66
2018-06-09T13:53:18.634Z,99311.92
2018-06-09T13:55:48.970Z,99315.81
2018-06-09T13:58:18.968Z,99313.34
2018-06-09T14:00:49.457Z,99311.98
2018-06-09T14:03:19.485Z,99314.38
2018-06-09T14:05:49.761Z,99305.71
2018-06-09T14:08:20.049Z,99302.95
2018-06-09T14:10:50.342Z,99312.95
2018-06-09T14:13:20.939Z,99305.30
2018-06-09T14:15:50.985Z,99313.00
2018-06-09T14:18:21.191Z,99320.45
2018-06-09T14:20:51.487Z,99328.88
2018-06-09T14:23:21.617Z,99355.23
2018-06-09T14:25:51.819Z,99350.10
2018-06-09T14:28:22.222Z,99359.41
2018-06-09T14:30:52.361Z,99353.73
2018-06-09T14:33:22.380Z,99364.62
2018-06-09T14:35:52.620Z,99366.04
2018-06-09T14:38:22.959Z,99371.84
2018-06-09T14:40:53.332Z,99367.98
2018-06-09T14:43:23.411Z,99368.92
2018-06-09T14:45:53.704Z,99373.42
2018-06-09T14:48:24.086Z,99369.53
2018-06-09T14:50:54.488Z,99360.77
2018-06-09T14:53:24.833Z,99355.04
2018-06-09T14:55:55.084Z,99359.44
2018-06-09T14:58:25.213Z,99360.06
2018-06-09T15:00:55.259Z,99367.14
2018-06-09T15:03:25.372Z,99364.13
2018-06-09T15:05:55.261Z,99364.80
2018-06-09T15:08:25.259Z,99359.55
2018-06-09T15:10:55.629Z,99348.89
2018-06-09T15:13:25.820Z,99347.53
2018-06-09T15:15:55.954Z,99345.81
2018-06-09T15:18:25.938Z,99354.94
2018-06-09T15:20:56.128Z,99358.88
2018-06-09T15:23:26.263Z,99363.72
2018-06-09T15:25:56.629Z,99367.34
2018-06-09T15:28:26.838Z,99375.48
2018-06-09T15:30:56.886Z,99388.56
2018-06-09T15:33:26.889Z,99377.66
2018-06-09T15:35:57.160Z,99382.61
2018-06-09T15:38:27.429Z,99385.20
2018-06-09T15:40:57.694Z,99385.26
2018-06-09T15:43:27.602Z,99386.13
2018-06-09T15:45:57.931Z,99388.72
2018-06-09T15:48:27.854Z,99386.42
2018-06-09T15:50:58.074Z,99393.07
2018-06-09T15:53:28.494Z,99392.30
2018-06-09T15:55:58.678Z,99394.88
2018-06-09T15:58:28.919Z,99387.00
2018-06-09T16:00:59.250Z,99388.38
2018-06-09T16:03:30.144Z,99387.28
2018-06-09T16:06:00.453Z,99388.42
2018-06-09T16:08:30.663Z,99382.38
2018-06-09T16:11:00.562Z,99383.33
2018-06-09T16:13:30.810Z,99386.37
2018-06-09T16:16:00.906Z,99387.36
2018-06-09T16:18:31.036Z,99388.95
2018-06-09T16:21:01.325Z,99395.31
2018-06-09T16:23:31.518Z,99394.88
2018-06-09T16:26:01.779Z,99392.57
2018-06-09T16:28:31.879Z,99390.88
2018-06-09T16:31:02.207Z,99393.86
2018-06-09T16:33:32.525Z,99388.56
2018-06-09T16:36:03.579Z,99391.28
2018-06-09T16:38:33.629Z,99394.96
2018-06-09T16:41:04.214Z,99395.30
2018-06-09T16:43:34.520Z,99387.34
2018-06-09T16:46:04.607Z,99391.08
2018-06-09T16:48:34.864Z,99387.91
2018-06-09T16:51:05.376Z,99386.88
2018-06-09T16:53:35.665Z,99387.92
2018-06-09T16:56:05.568Z,99389.97
2018-06-09T16:58:35.667Z,99390.66
2018-06-09T17:01:05.723Z,99393.08
2018-06-09T17:03:36.018Z,99389.02
2018-06-09T17:06:06.371Z,99388.97
2018-06-09T17:08:36.395Z,99395.39
2018-06-09T17:11:06.744Z,99394.83
2018-06-09T17:13:36.911Z,99400.16
2018-06-09T17:16:07.140Z,99398.84
2018-06-09T17:18:37.076Z,99405.63
2018-06-09T17:21:07.178Z,99400.59
2018-06-09T17:23:37.447Z,99396.25
2018-06-09T17:26:08.702Z,99396.95
2018-06-09T17:28:38.952Z,99401.20
2018-06-09T17:31:09.453Z,99403.53
2018-06-09T17:33:39.432Z,99407.54
2018-06-09T17:36:09.555Z,99397.88
2018-06-09T17:38:39.741Z,99407.54
2018-06-09T17:41:09.802Z,99402.69
2018-06-09T17:43:39.926Z,99409.08
2018-06-09T17:46:09.957Z,99404.32
2018-06-09T17:48:40.039Z,99410.25
2018-06-09T17:51:10.477Z,99413.14
2018-06-09T17:53:40.768Z,99414.67
2018-06-09T17:56:10.816Z,99429.67
2018-06-09T17:58:40.799Z,99423.27
2018-06-09T18:01:11.148Z,99429.75
2018-06-09T18:03:40.988Z,99424.73
2018-06-09T18:06:11.334Z,99426.47
2018-06-09T18:08:41.366Z,99432.58
2018-06-09T18:15:16.634Z,99446.87
2018-06-09T18:17:47.026Z,99446.53
2018-06-09T18:20:17.135Z,99448.61
2018-06-09T18:22:47.532Z,99451.98
2018-06-09T18:25:17.418Z,99456.41
2018-06-09T18:27:47.486Z,99465.20
2018-06-09T18:30:17.919Z,99457.42
2018-06-09T18:32:47.948Z,99463.17
2018-06-09T18:35:18.032Z,99461.48
2018-06-09T18:37:48.520Z,99453.39
2018-06-09T18:40:18.492Z,99452.34
2018-06-09T18:42:48.522Z,99458.59
2018-06-09T18:45:18.683Z,99457.59
2018-06-09T18:47:49.960Z,99450.31
2018-06-09T18:50:20.300Z,99455.06
2018-06-09T18:52:50.374Z,99453.70
2018-06-09T18:55:20.556Z,99446.42
2018-06-09T18:57:50.819Z,99444.58
2018-06-09T19:00:20.912Z,99444.24
2018-06-09T19:02:52.691Z,99447.09
2018-06-09T19:05:23.154Z,99448.25
2018-06-09T19:07:53.747Z,99456.03
2018-06-09T19:10:24.222Z,99452.31
2018-06-09T19:12:54.517Z,99455.30
2018-06-09T19:15:24.808Z,99450.57
2018-06-09T19:17:54.995Z,99459.02
2018-06-09T19:20:24.894Z,99463.68
2018-06-09T19:22:55.070Z,99457.36
2018-06-09T19:25:25.316Z,99459.73
2018-06-09T19:27:55.308Z,99460.34
2018-06-09T19:30:25.611Z,99462.69
2018-06-09T19:32:55.613Z,99467.90
2018-06-09T19:35:25.951Z,99466.55
2018-06-09T19:37:56.316Z,99463.35
2018-06-09T19:40:26.443Z,99470.94
2018-06-09T19:42:56.657Z,99464.73
2018-06-09T19:45:26.803Z,99463.91
2018-06-09T19:47:57.819Z,99460.00
2018-06-09T19:50:28.082Z,99462.16
2018-06-09T19:52:57.952Z,99463.35
2018-06-09T19:55:28.096Z,99464.04
2018-06-09T19:57:58.585Z,99453.59
2018-06-09T20:00:28.516Z,99452.03
2018-06-09T20:02:58.674Z,99455.54
2018-06-09T20:05:28.753Z,99456.52
2018-06-09T20:07:59.058Z,99452.47
2018-06-09T20:10:29.705Z,99455.16
2018-06-09T20:12:59.930Z,99458.36
2018-06-09T20:15:30.013Z,99452.77
2018-06-09T20:18:00.105Z,99458.48
2018-06-09T20:20:30.237Z,99457.41
2018-06-09T20:23:00.210Z,99461.83
2018-06-09T20:25:30.397Z,99462.48
2018-06-09T20:28:00.662Z,99465.14
2018-06-09T20:30:30.954Z,99466.30
2018-06-09T20:33:01.282Z,99463.72
2018-06-09T20:35:31.593Z,99467.14
2018-06-09T20:38:01.794Z,99464.41
2018-06-09T20:40:32.015Z,99457.47
2018-06-09T20:43:02.574Z,99452.73
2018-06-09T20:45:32.586Z,99453.77
2018-06-09T20:48:02.540Z,99448.08
2018-06-09T20:50:32.801Z,99442.04
2018-06-09T20:53:04.084Z,99443.69
2018-06-09T20:55:34.306Z,99449.95
2018-06-09T20:58:04.786Z,99455.44
2018-06-09T21:00:35.167Z,99450.88
2018-06-09T21:03:05.253Z,99457.89
2018-06-09T21:05:35.521Z,99457.75
2018-06-09T21:08:05.701Z,99451.30
2018-06-09T21:10:35.996Z,99455.20
2018-06-09T21:13:06.233Z,99454.95
2018-06-09T21:15:36.374Z,99456.38
2018-06-09T21:18:06.561Z,99459.33
2018-06-09T21:20:36.713Z,99459.77
2018-06-09T21:23:06.959Z,99451.14
2018-06-09T21:25:36.989Z,99447.75
2018-06-09T21:28:14.352Z,99458.48
2018-06-09T21:30:44.641Z,99455.66
2018-06-09T21:33:32.371Z,99451.28
2018-06-09T21:36:07.491Z,99452.56
2018-06-09T21:38:41.755Z,99452.32
2018-06-09T21:41:16.846Z,99447.38
2018-06-09T21:43:52.206Z,99448.62
2018-06-09T21:46:28.146Z,99447.88
2018-06-09T21:48:58.528Z,99444.56
2018-06-09T21:51:28.686Z,99443.61
2018-06-09T21:53:58.884Z,99448.56
2018-06-09T21:56:29.358Z,99453.86
2018-06-09T21:59:00.197Z,99450.82
2018-06-09T22:01:30.064Z,99454.56
2018-06-09T22:04:00.507Z,99457.33
2018-06-09T22:06:30.583Z,99453.30
2018-06-09T22:09:00.282Z,99458.13
2018-06-09T22:11:30.754Z,99460.74
2018-06-09T22:14:01.147Z,99460.67
2018-06-09T22:16:31.352Z,99457.55
2018-06-09T22:19:01.386Z,99458.89
2018-06-09T22:21:31.679Z,99456.99
2018-06-09T22:24:02.921Z,99453.59
2018-06-09T22:26:33.252Z,99454.94
2018-06-09T22:29:03.515Z,99447.80
2018-06-09T22:31:33.653Z,99445.92
2018-06-09T22:34:03.924Z,99440.38
2018-06-09T22:36:33.826Z,99437.02
2018-06-09T22:39:04.368Z,99444.41
2018-06-09T22:41:34.434Z,99441.72
2018-06-09T22:44:04.704Z,99442.78
2018-06-09T22:46:34.745Z,99444.06
2018-06-09T22:49:04.927Z,99452.81
2018-06-09T22:51:35.200Z,99445.42
2018-06-09T22:54:05.088Z,99441.67
2018-06-09T22:56:35.280Z,99439.55
2018-06-09T22:59:05.247Z,99442.59
2018-06-09T23:01:35.366Z,99434.33
2018-06-09T23:04:05.470Z,99432.91
2018-06-09T23:06:35.658Z,99437.22
2018-06-09T23:09:07.863Z,99436.43
2018-06-09T23:11:38.099Z,99432.17
2018-06-09T23:14:08.115Z,99427.55
2018-06-09T23:16:38.420Z,99424.47
2018-06-09T23:19:08.600Z,99425.73
2018-06-09T23:21:38.944Z,99426.81
2018-06-09T23:24:09.339Z,99428.57
2018-06-09T23:26:39.612Z,99426.52
2018-06-09T23:29:09.833Z,99427.58
2018-06-09T23:31:39.933Z,99430.39
2018-06-09T23:34:10.058Z,99430.76
2018-06-09T23:36:40.146Z,99424.05
2018-06-09T23:39:10.306Z,99418.47
2018-06-09T23:41:40.347Z,99420.80
2018-06-09T23:44:10.469Z,99415.84
2018-06-09T23:46:40.607Z,99411.66
2018-06-09T23:49:10.720Z,99412.23
2018-06-09T23:51:40.707Z,99410.53
2018-06-09T23:54:11.169Z,99410.26
2018-06-09T23:56:42.502Z,99416.12
2018-06-09T23:59:12.834Z,99403.77
